sensor_id;sensor_type;location;lat;lon;timestamp;temperature;humidity
53711;DHT22;39605;52.704;6.752;2023-02-18T00:01:13;8.10;99.90
53711;DHT22;39605;52.704;6.752;2023-02-18T00:03:39;8.10;99.90
53711;DHT22;39605;52.704;6.752;2023-02-18T00:06:13;8.10;99.90
53711;DHT22;39605;52.704;6.752;2023-02-18T00:08:40;8.10;99.90
53711;DHT22;39605;52.704;6.752;2023-02-18T00:11:06;8.10;99.90
53711;DHT22;39605;52.704;6.752;2023-02-18T00:13:32;8.10;99.90
53711;DHT22;39605;52.704;6.752;2023-02-18T00:16:03;8.10;99.90
53711;DHT22;39605;52.704;6.752;2023-02-18T00:18:29;8.10;99.90
53711;DHT22;39605;52.704;6.752;2023-02-18T00:20:55;8.20;99.90
53711;DHT22;39605;52.704;6.752;2023-02-18T00:23:21;8.20;99.90
53711;DHT22;39605;52.704;6.752;2023-02-18T00:25:47;8.20;99.90
53711;DHT22;39605;52.704;6.752;2023-02-18T00:28:12;8.20;99.90
53711;DHT22;39605;52.704;6.752;2023-02-18T00:30:42;8.20;99.90
53711;DHT22;39605;52.704;6.752;2023-02-18T00:33:08;8.20;99.90
53711;DHT22;39605;52.704;6.752;2023-02-18T00:35:34;8.20;99.90
53711;DHT22;39605;52.704;6.752;2023-02-18T00:38:00;8.20;99.90
53711;DHT22;39605;52.704;6.752;2023-02-18T00:40:25;8.20;99.90
53711;DHT22;39605;52.704;6.752;2023-02-18T00:42:51;8.30;99.90
53711;DHT22;39605;52.704;6.752;2023-02-18T00:45:17;8.30;99.90
53711;DHT22;39605;52.704;6.752;2023-02-18T00:47:42;8.30;99.90
53711;DHT22;39605;52.704;6.752;2023-02-18T00:50:09;8.30;99.90
53711;DHT22;39605;52.704;6.752;2023-02-18T00:52:35;8.30;99.90
53711;DHT22;39605;52.704;6.752;2023-02-18T00:55:01;8.30;99.90
53711;DHT22;39605;52.704;6.752;2023-02-18T00:57:26;8.30;99.90
53711;DHT22;39605;52.704;6.752;2023-02-18T00:59:52;8.30;99.90
53711;DHT22;39605;52.704;6.752;2023-02-18T01:02:18;8.20;99.90
53711;DHT22;39605;52.704;6.752;2023-02-18T01:04:43;8.30;99.90
53711;DHT22;39605;52.704;6.752;2023-02-18T01:07:09;8.30;99.90
53711;DHT22;39605;52.704;6.752;2023-02-18T01:09:35;8.40;99.90
53711;DHT22;39605;52.704;6.752;2023-02-18T01:12:01;8.40;99.90
53711;DHT22;39605;52.704;6.752;2023-02-18T01:14:27;8.30;99.90
53711;DHT22;39605;52.704;6.752;2023-02-18T01:16:53;8.40;99.90
53711;DHT22;39605;52.704;6.752;2023-02-18T01:19:18;8.40;99.90
53711;DHT22;39605;52.704;6.752;2023-02-18T01:21:44;8.40;99.90
53711;DHT22;39605;52.704;6.752;2023-02-18T01:24:10;8.40;99.90
53711;DHT22;39605;52.704;6.752;2023-02-18T01:26:35;8.40;99.90
53711;DHT22;39605;52.704;6.752;2023-02-18T01:29:01;8.40;99.90
53711;DHT22;39605;52.704;6.752;2023-02-18T01:31:27;8.50;99.90
53711;DHT22;39605;52.704;6.752;2023-02-18T01:33:53;8.50;99.90
53711;DHT22;39605;52.704;6.752;2023-02-18T01:36:19;8.50;99.90
53711;DHT22;39605;52.704;6.752;2023-02-18T01:38:44;8.50;99.90
53711;DHT22;39605;52.704;6.752;2023-02-18T01:41:10;8.50;99.90
53711;DHT22;39605;52.704;6.752;2023-02-18T01:43:36;8.50;99.90
53711;DHT22;39605;52.704;6.752;2023-02-18T01:51:21;8.60;99.90
53711;DHT22;39605;52.704;6.752;2023-02-18T01:53:53;8.60;99.90
53711;DHT22;39605;52.704;6.752;2023-02-18T01:56:28;8.60;99.90
53711;DHT22;39605;52.704;6.752;2023-02-18T01:58:57;8.70;99.90
53711;DHT22;39605;52.704;6.752;2023-02-18T02:01:25;8.70;99.90
53711;DHT22;39605;52.704;6.752;2023-02-18T02:03:51;8.70;99.90
53711;DHT22;39605;52.704;6.752;2023-02-18T02:06:19;8.70;99.90
53711;DHT22;39605;52.704;6.752;2023-02-18T02:08:46;8.70;99.90
53711;DHT22;39605;52.704;6.752;2023-02-18T02:14:30;8.70;99.90
53711;DHT22;39605;52.704;6.752;2023-02-18T02:16:58;8.80;99.90
53711;DHT22;39605;52.704;6.752;2023-02-18T02:19:54;8.80;99.90
53711;DHT22;39605;52.704;6.752;2023-02-18T02:25:34;8.80;99.90
53711;DHT22;39605;52.704;6.752;2023-02-18T02:43:55;8.80;99.90
53711;DHT22;39605;52.704;6.752;2023-02-18T02:46:31;8.80;99.90
53711;DHT22;39605;52.704;6.752;2023-02-18T02:49:32;8.80;99.90
53711;DHT22;39605;52.704;6.752;2023-02-18T02:52:07;8.90;99.90
53711;DHT22;39605;52.704;6.752;2023-02-18T02:54:34;8.90;99.90
53711;DHT22;39605;52.704;6.752;2023-02-18T02:57:54;8.90;99.90
53711;DHT22;39605;52.704;6.752;2023-02-18T03:00:00;8.90;99.90
53711;DHT22;39605;52.704;6.752;2023-02-18T03:07:59;9.00;99.90
53711;DHT22;39605;52.704;6.752;2023-02-18T03:10:44;9.00;99.90
53711;DHT22;39605;52.704;6.752;2023-02-18T03:15:58;9.00;99.90
53711;DHT22;39605;52.704;6.752;2023-02-18T03:21:12;9.00;99.90
53711;DHT22;39605;52.704;6.752;2023-02-18T03:23:45;9.00;99.90
53711;DHT22;39605;52.704;6.752;2023-02-18T03:26:15;9.00;99.90
53711;DHT22;39605;52.704;6.752;2023-02-18T03:28:43;9.00;99.90
53711;DHT22;39605;52.704;6.752;2023-02-18T03:31:13;9.00;99.90
53711;DHT22;39605;52.704;6.752;2023-02-18T03:33:45;9.10;99.90
53711;DHT22;39605;52.704;6.752;2023-02-18T03:36:12;9.10;99.90
53711;DHT22;39605;52.704;6.752;2023-02-18T03:38:43;9.10;99.90
53711;DHT22;39605;52.704;6.752;2023-02-18T03:41:10;9.10;99.90
53711;DHT22;39605;52.704;6.752;2023-02-18T03:43:36;9.10;99.90
53711;DHT22;39605;52.704;6.752;2023-02-18T03:46:02;9.10;99.90
53711;DHT22;39605;52.704;6.752;2023-02-18T03:48:28;9.10;99.90
53711;DHT22;39605;52.704;6.752;2023-02-18T03:50:53;9.10;99.90
53711;DHT22;39605;52.704;6.752;2023-02-18T03:53:19;9.20;99.90
53711;DHT22;39605;52.704;6.752;2023-02-18T03:55:45;9.20;99.90
53711;DHT22;39605;52.704;6.752;2023-02-18T03:58:11;9.20;99.90
53711;DHT22;39605;52.704;6.752;2023-02-18T04:00:36;9.20;99.90
53711;DHT22;39605;52.704;6.752;2023-02-18T04:03:02;9.20;99.90
53711;DHT22;39605;52.704;6.752;2023-02-18T04:05:28;9.20;99.90
53711;DHT22;39605;52.704;6.752;2023-02-18T04:07:53;9.20;99.90
53711;DHT22;39605;52.704;6.752;2023-02-18T04:10:19;9.30;99.90
53711;DHT22;39605;52.704;6.752;2023-02-18T04:12:47;9.30;99.90
53711;DHT22;39605;52.704;6.752;2023-02-18T04:15:12;9.30;99.90
53711;DHT22;39605;52.704;6.752;2023-02-18T04:17:39;9.30;99.90
53711;DHT22;39605;52.704;6.752;2023-02-18T04:20:05;9.30;99.90
53711;DHT22;39605;52.704;6.752;2023-02-18T04:22:31;9.30;99.90
53711;DHT22;39605;52.704;6.752;2023-02-18T04:24:57;9.30;99.90
53711;DHT22;39605;52.704;6.752;2023-02-18T04:27:23;9.30;99.90
53711;DHT22;39605;52.704;6.752;2023-02-18T04:29:49;9.30;99.90
53711;DHT22;39605;52.704;6.752;2023-02-18T04:32:15;9.30;99.90
53711;DHT22;39605;52.704;6.752;2023-02-18T04:34:41;9.40;99.90
53711;DHT22;39605;52.704;6.752;2023-02-18T04:37:07;9.30;99.90
53711;DHT22;39605;52.704;6.752;2023-02-18T04:39:32;9.30;99.90
53711;DHT22;39605;52.704;6.752;2023-02-18T04:41:58;9.30;99.90
53711;DHT22;39605;52.704;6.752;2023-02-18T04:44:24;9.40;99.90
53711;DHT22;39605;52.704;6.752;2023-02-18T04:46:49;9.40;99.90
53711;DHT22;39605;52.704;6.752;2023-02-18T04:49:15;9.40;99.90
53711;DHT22;39605;52.704;6.752;2023-02-18T04:51:41;9.40;99.90
53711;DHT22;39605;52.704;6.752;2023-02-18T04:54:06;9.40;99.90
53711;DHT22;39605;52.704;6.752;2023-02-18T04:56:32;9.40;99.90
53711;DHT22;39605;52.704;6.752;2023-02-18T04:58:58;9.40;99.90
53711;DHT22;39605;52.704;6.752;2023-02-18T05:01:23;9.40;99.90
53711;DHT22;39605;52.704;6.752;2023-02-18T05:03:49;9.40;99.90
53711;DHT22;39605;52.704;6.752;2023-02-18T05:06:15;9.40;99.90
53711;DHT22;39605;52.704;6.752;2023-02-18T05:08:40;9.40;99.90
53711;DHT22;39605;52.704;6.752;2023-02-18T05:11:07;9.40;99.90
53711;DHT22;39605;52.704;6.752;2023-02-18T05:13:33;9.40;99.90
53711;DHT22;39605;52.704;6.752;2023-02-18T05:15:59;9.40;99.90
53711;DHT22;39605;52.704;6.752;2023-02-18T05:18:25;9.40;99.90
53711;DHT22;39605;52.704;6.752;2023-02-18T05:20:51;9.40;99.90
53711;DHT22;39605;52.704;6.752;2023-02-18T05:23:16;9.40;99.90
53711;DHT22;39605;52.704;6.752;2023-02-18T05:25:44;9.40;99.90
53711;DHT22;39605;52.704;6.752;2023-02-18T05:28:10;9.40;99.90
53711;DHT22;39605;52.704;6.752;2023-02-18T05:30:36;9.40;99.90
53711;DHT22;39605;52.704;6.752;2023-02-18T05:33:01;9.40;99.90
53711;DHT22;39605;52.704;6.752;2023-02-18T05:35:27;9.40;99.90
53711;DHT22;39605;52.704;6.752;2023-02-18T05:37:53;9.40;99.90
53711;DHT22;39605;52.704;6.752;2023-02-18T05:40:18;9.40;99.90
53711;DHT22;39605;52.704;6.752;2023-02-18T05:42:44;9.40;99.90
53711;DHT22;39605;52.704;6.752;2023-02-18T05:45:10;9.40;99.90
53711;DHT22;39605;52.704;6.752;2023-02-18T05:47:36;9.40;99.90
53711;DHT22;39605;52.704;6.752;2023-02-18T05:50:02;9.40;99.90
53711;DHT22;39605;52.704;6.752;2023-02-18T05:52:28;9.40;99.90
53711;DHT22;39605;52.704;6.752;2023-02-18T05:54:53;9.40;99.90
53711;DHT22;39605;52.704;6.752;2023-02-18T05:57:19;9.40;99.90
53711;DHT22;39605;52.704;6.752;2023-02-18T05:59:45;9.40;99.90
53711;DHT22;39605;52.704;6.752;2023-02-18T06:02:10;9.40;99.90
53711;DHT22;39605;52.704;6.752;2023-02-18T06:04:36;9.40;99.90
53711;DHT22;39605;52.704;6.752;2023-02-18T06:07:02;9.40;99.90
53711;DHT22;39605;52.704;6.752;2023-02-18T06:09:27;9.40;99.90
53711;DHT22;39605;52.704;6.752;2023-02-18T06:11:53;9.50;99.90
53711;DHT22;39605;52.704;6.752;2023-02-18T06:14:19;9.40;99.90
53711;DHT22;39605;52.704;6.752;2023-02-18T06:16:45;9.50;99.90
53711;DHT22;39605;52.704;6.752;2023-02-18T06:19:11;9.50;99.90
53711;DHT22;39605;52.704;6.752;2023-02-18T06:21:36;9.50;99.90
53711;DHT22;39605;52.704;6.752;2023-02-18T06:24:02;9.50;99.90
53711;DHT22;39605;52.704;6.752;2023-02-18T06:26:28;9.50;99.90
53711;DHT22;39605;52.704;6.752;2023-02-18T06:28:54;9.50;99.90
53711;DHT22;39605;52.704;6.752;2023-02-18T06:31:19;9.60;99.90
53711;DHT22;39605;52.704;6.752;2023-02-18T06:33:45;9.60;99.90
53711;DHT22;39605;52.704;6.752;2023-02-18T06:36:11;9.60;99.90
53711;DHT22;39605;52.704;6.752;2023-02-18T06:38:42;9.60;99.90
53711;DHT22;39605;52.704;6.752;2023-02-18T06:41:09;9.60;99.90
53711;DHT22;39605;52.704;6.752;2023-02-18T06:43:35;9.60;99.90
53711;DHT22;39605;52.704;6.752;2023-02-18T06:46:01;9.60;99.90
53711;DHT22;39605;52.704;6.752;2023-02-18T06:48:27;9.70;99.90
53711;DHT22;39605;52.704;6.752;2023-02-18T06:50:53;9.70;99.90
53711;DHT22;39605;52.704;6.752;2023-02-18T06:53:19;9.70;99.90
53711;DHT22;39605;52.704;6.752;2023-02-18T06:55:45;9.70;99.90
53711;DHT22;39605;52.704;6.752;2023-02-18T06:58:11;9.70;99.90
53711;DHT22;39605;52.704;6.752;2023-02-18T07:00:37;9.70;99.90
53711;DHT22;39605;52.704;6.752;2023-02-18T07:03:03;9.70;99.90
53711;DHT22;39605;52.704;6.752;2023-02-18T07:05:29;9.80;99.90
53711;DHT22;39605;52.704;6.752;2023-02-18T07:07:55;9.80;99.90
53711;DHT22;39605;52.704;6.752;2023-02-18T07:10:21;9.80;99.90
53711;DHT22;39605;52.704;6.752;2023-02-18T07:12:47;9.80;99.90
53711;DHT22;39605;52.704;6.752;2023-02-18T07:15:13;9.80;99.90
53711;DHT22;39605;52.704;6.752;2023-02-18T07:17:39;9.90;99.90
53711;DHT22;39605;52.704;6.752;2023-02-18T07:20:06;9.90;99.90
53711;DHT22;39605;52.704;6.752;2023-02-18T07:22:31;9.90;99.90
53711;DHT22;39605;52.704;6.752;2023-02-18T07:24:57;9.90;99.90
53711;DHT22;39605;52.704;6.752;2023-02-18T07:27:23;9.90;99.90
53711;DHT22;39605;52.704;6.752;2023-02-18T07:29:49;9.90;99.90
53711;DHT22;39605;52.704;6.752;2023-02-18T07:32:16;10.00;99.90
53711;DHT22;39605;52.704;6.752;2023-02-18T07:34:42;10.00;99.90
53711;DHT22;39605;52.704;6.752;2023-02-18T07:37:08;10.00;99.90
53711;DHT22;39605;52.704;6.752;2023-02-18T07:39:43;10.00;99.90
53711;DHT22;39605;52.704;6.752;2023-02-18T07:42:10;10.00;99.90
53711;DHT22;39605;52.704;6.752;2023-02-18T07:44:37;10.00;99.90
53711;DHT22;39605;52.704;6.752;2023-02-18T07:47:04;10.00;99.90
53711;DHT22;39605;52.704;6.752;2023-02-18T07:49:32;10.00;99.90
53711;DHT22;39605;52.704;6.752;2023-02-18T07:51:58;10.00;99.90
53711;DHT22;39605;52.704;6.752;2023-02-18T07:54:24;10.00;99.90
53711;DHT22;39605;52.704;6.752;2023-02-18T07:56:50;10.10;99.90
53711;DHT22;39605;52.704;6.752;2023-02-18T07:59:16;10.00;99.90
53711;DHT22;39605;52.704;6.752;2023-02-18T08:01:43;10.10;99.90
53711;DHT22;39605;52.704;6.752;2023-02-18T08:04:09;10.00;99.90
53711;DHT22;39605;52.704;6.752;2023-02-18T08:06:37;10.00;99.90
53711;DHT22;39605;52.704;6.752;2023-02-18T08:09:03;10.10;99.90
53711;DHT22;39605;52.704;6.752;2023-02-18T08:11:29;10.00;99.90
53711;DHT22;39605;52.704;6.752;2023-02-18T08:13:55;10.10;99.90
53711;DHT22;39605;52.704;6.752;2023-02-18T08:16:21;10.10;99.90
53711;DHT22;39605;52.704;6.752;2023-02-18T08:18:49;10.10;99.90
53711;DHT22;39605;52.704;6.752;2023-02-18T08:21:16;10.10;99.90
53711;DHT22;39605;52.704;6.752;2023-02-18T08:23:42;10.10;99.90
53711;DHT22;39605;52.704;6.752;2023-02-18T08:26:08;10.10;99.90
53711;DHT22;39605;52.704;6.752;2023-02-18T08:28:34;10.20;99.90
53711;DHT22;39605;52.704;6.752;2023-02-18T08:31:00;10.20;99.90
53711;DHT22;39605;52.704;6.752;2023-02-18T08:33:26;10.20;99.90
53711;DHT22;39605;52.704;6.752;2023-02-18T08:35:52;10.20;99.90
53711;DHT22;39605;52.704;6.752;2023-02-18T08:38:19;10.30;99.90
53711;DHT22;39605;52.704;6.752;2023-02-18T08:40:45;10.30;99.90
53711;DHT22;39605;52.704;6.752;2023-02-18T08:43:15;10.30;99.90
53711;DHT22;39605;52.704;6.752;2023-02-18T08:45:43;10.30;99.90
53711;DHT22;39605;52.704;6.752;2023-02-18T08:48:11;10.30;99.90
53711;DHT22;39605;52.704;6.752;2023-02-18T08:50:37;10.30;99.90
53711;DHT22;39605;52.704;6.752;2023-02-18T08:53:04;10.40;99.90
53711;DHT22;39605;52.704;6.752;2023-02-18T08:55:31;10.40;99.90
53711;DHT22;39605;52.704;6.752;2023-02-18T08:57:57;10.30;99.90
53711;DHT22;39605;52.704;6.752;2023-02-18T09:00:23;10.30;99.90
53711;DHT22;39605;52.704;6.752;2023-02-18T09:02:49;10.30;99.90
53711;DHT22;39605;52.704;6.752;2023-02-18T09:05:15;10.30;99.90
53711;DHT22;39605;52.704;6.752;2023-02-18T09:07:41;10.30;99.90
53711;DHT22;39605;52.704;6.752;2023-02-18T09:10:08;10.30;99.90
53711;DHT22;39605;52.704;6.752;2023-02-18T09:12:34;10.30;99.90
53711;DHT22;39605;52.704;6.752;2023-02-18T09:15:00;10.30;99.90
53711;DHT22;39605;52.704;6.752;2023-02-18T09:17:26;10.30;99.90
53711;DHT22;39605;52.704;6.752;2023-02-18T09:19:52;10.30;99.90
53711;DHT22;39605;52.704;6.752;2023-02-18T09:22:18;10.30;99.90
53711;DHT22;39605;52.704;6.752;2023-02-18T09:24:44;10.20;99.90
53711;DHT22;39605;52.704;6.752;2023-02-18T09:27:09;10.20;99.90
53711;DHT22;39605;52.704;6.752;2023-02-18T09:29:38;10.20;99.90
53711;DHT22;39605;52.704;6.752;2023-02-18T09:32:05;10.20;99.90
53711;DHT22;39605;52.704;6.752;2023-02-18T09:34:31;10.20;99.90
53711;DHT22;39605;52.704;6.752;2023-02-18T09:36:57;10.10;99.90
53711;DHT22;39605;52.704;6.752;2023-02-18T09:39:23;10.10;99.90
53711;DHT22;39605;52.704;6.752;2023-02-18T09:42:01;10.10;99.90
53711;DHT22;39605;52.704;6.752;2023-02-18T09:44:43;10.00;99.90
53711;DHT22;39605;52.704;6.752;2023-02-18T09:47:21;10.00;99.90
53711;DHT22;39605;52.704;6.752;2023-02-18T09:49:56;10.00;99.90
53711;DHT22;39605;52.704;6.752;2023-02-18T09:52:27;9.90;99.90
53711;DHT22;39605;52.704;6.752;2023-02-18T09:54:54;10.00;99.90
53711;DHT22;39605;52.704;6.752;2023-02-18T09:57:29;9.90;99.90
53711;DHT22;39605;52.704;6.752;2023-02-18T10:00:03;9.90;99.90
53711;DHT22;39605;52.704;6.752;2023-02-18T10:02:30;9.90;99.90
53711;DHT22;39605;52.704;6.752;2023-02-18T10:04:57;9.90;99.90
53711;DHT22;39605;52.704;6.752;2023-02-18T10:07:26;9.90;99.90
53711;DHT22;39605;52.704;6.752;2023-02-18T10:09:55;9.80;99.90
53711;DHT22;39605;52.704;6.752;2023-02-18T10:12:24;9.90;99.90
53711;DHT22;39605;52.704;6.752;2023-02-18T10:14:53;9.90;99.90
53711;DHT22;39605;52.704;6.752;2023-02-18T10:17:20;9.80;99.90
53711;DHT22;39605;52.704;6.752;2023-02-18T10:19:49;9.80;99.90
53711;DHT22;39605;52.704;6.752;2023-02-18T10:22:16;9.80;99.90
53711;DHT22;39605;52.704;6.752;2023-02-18T10:27:22;9.80;99.90
53711;DHT22;39605;52.704;6.752;2023-02-18T10:29:49;9.90;99.90
53711;DHT22;39605;52.704;6.752;2023-02-18T10:32:33;9.80;99.90
53711;DHT22;39605;52.704;6.752;2023-02-18T10:46:20;10.20;99.90
53711;DHT22;39605;52.704;6.752;2023-02-18T10:51:27;10.40;99.90
53711;DHT22;39605;52.704;6.752;2023-02-18T10:53:54;10.40;99.90
53711;DHT22;39605;52.704;6.752;2023-02-18T10:56:40;10.50;99.90
53711;DHT22;39605;52.704;6.752;2023-02-18T10:59:22;10.50;99.90
53711;DHT22;39605;52.704;6.752;2023-02-18T11:02:09;10.50;99.90
53711;DHT22;39605;52.704;6.752;2023-02-18T11:04:41;10.60;99.90
53711;DHT22;39605;52.704;6.752;2023-02-18T11:09:53;10.50;99.90
53711;DHT22;39605;52.704;6.752;2023-02-18T11:12:42;10.50;99.90
53711;DHT22;39605;52.704;6.752;2023-02-18T11:15:22;10.50;99.90
53711;DHT22;39605;52.704;6.752;2023-02-18T11:17:51;10.50;99.90
53711;DHT22;39605;52.704;6.752;2023-02-18T11:20:25;10.60;99.90
53711;DHT22;39605;52.704;6.752;2023-02-18T11:22:51;10.60;99.90
53711;DHT22;39605;52.704;6.752;2023-02-18T11:25:27;10.60;99.90
53711;DHT22;39605;52.704;6.752;2023-02-18T11:28:00;10.70;99.90
53711;DHT22;39605;52.704;6.752;2023-02-18T11:33:18;10.70;99.90
53711;DHT22;39605;52.704;6.752;2023-02-18T11:35:56;10.60;99.90
53711;DHT22;39605;52.704;6.752;2023-02-18T11:38:26;10.70;99.90
53711;DHT22;39605;52.704;6.752;2023-02-18T11:41:08;10.70;99.90
53711;DHT22;39605;52.704;6.752;2023-02-18T11:43:34;10.70;99.90
53711;DHT22;39605;52.704;6.752;2023-02-18T11:48:37;10.70;99.90
53711;DHT22;39605;52.704;6.752;2023-02-18T11:51:03;10.70;99.90
53711;DHT22;39605;52.704;6.752;2023-02-18T11:53:32;10.70;99.90
53711;DHT22;39605;52.704;6.752;2023-02-18T11:56:04;10.70;99.90
53711;DHT22;39605;52.704;6.752;2023-02-18T11:58:42;10.70;99.90
53711;DHT22;39605;52.704;6.752;2023-02-18T12:01:40;10.70;99.90
53711;DHT22;39605;52.704;6.752;2023-02-18T12:04:28;10.70;99.90
53711;DHT22;39605;52.704;6.752;2023-02-18T12:09:44;10.90;99.90
53711;DHT22;39605;52.704;6.752;2023-02-18T12:12:43;11.00;99.90
53711;DHT22;39605;52.704;6.752;2023-02-18T12:15:17;11.10;99.90
53711;DHT22;39605;52.704;6.752;2023-02-18T12:31:32;11.20;99.90
53711;DHT22;39605;52.704;6.752;2023-02-18T12:34:35;11.30;99.90
53711;DHT22;39605;52.704;6.752;2023-02-18T12:37:17;11.30;99.90
53711;DHT22;39605;52.704;6.752;2023-02-18T12:43:08;11.40;99.90
53711;DHT22;39605;52.704;6.752;2023-02-18T13:02:45;11.40;99.90
53711;DHT22;39605;52.704;6.752;2023-02-18T13:13:30;11.40;99.90
53711;DHT22;39605;52.704;6.752;2023-02-18T13:16:07;11.40;99.90
53711;DHT22;39605;52.704;6.752;2023-02-18T13:18:37;11.40;99.90
53711;DHT22;39605;52.704;6.752;2023-02-18T13:21:06;11.40;99.90
53711;DHT22;39605;52.704;6.752;2023-02-18T13:23:59;11.40;99.90
53711;DHT22;39605;52.704;6.752;2023-02-18T13:26:28;11.40;99.90
53711;DHT22;39605;52.704;6.752;2023-02-18T13:34:44;11.60;99.90
53711;DHT22;39605;52.704;6.752;2023-02-18T13:39:56;11.50;99.90
53711;DHT22;39605;52.704;6.752;2023-02-18T13:52:47;11.60;99.90
53711;DHT22;39605;52.704;6.752;2023-02-18T13:55:41;11.60;99.90
53711;DHT22;39605;52.704;6.752;2023-02-18T13:58:17;11.50;99.90
53711;DHT22;39605;52.704;6.752;2023-02-18T14:00:58;11.50;99.90
53711;DHT22;39605;52.704;6.752;2023-02-18T14:06:14;11.50;99.90
53711;DHT22;39605;52.704;6.752;2023-02-18T14:08:40;11.50;99.90
53711;DHT22;39605;52.704;6.752;2023-02-18T14:13:41;11.40;99.90
53711;DHT22;39605;52.704;6.752;2023-02-18T14:16:07;11.40;99.90
53711;DHT22;39605;52.704;6.752;2023-02-18T14:18:57;11.40;99.90
53711;DHT22;39605;52.704;6.752;2023-02-18T14:21:40;11.40;99.90
53711;DHT22;39605;52.704;6.752;2023-02-18T14:24:09;11.40;99.90
53711;DHT22;39605;52.704;6.752;2023-02-18T14:26:46;11.40;99.90
53711;DHT22;39605;52.704;6.752;2023-02-18T14:29:23;11.40;99.90
53711;DHT22;39605;52.704;6.752;2023-02-18T14:31:54;11.40;99.90
53711;DHT22;39605;52.704;6.752;2023-02-18T14:50:49;11.30;99.90
53711;DHT22;39605;52.704;6.752;2023-02-18T14:53:19;11.30;99.90
53711;DHT22;39605;52.704;6.752;2023-02-18T14:56:03;11.20;99.90
53711;DHT22;39605;52.704;6.752;2023-02-18T14:58:41;11.20;99.90
53711;DHT22;39605;52.704;6.752;2023-02-18T15:03:49;11.20;99.90
53711;DHT22;39605;52.704;6.752;2023-02-18T15:06:34;11.10;99.90
53711;DHT22;39605;52.704;6.752;2023-02-18T15:09:11;11.10;99.90
53711;DHT22;39605;52.704;6.752;2023-02-18T15:11:45;11.10;99.90
53711;DHT22;39605;52.704;6.752;2023-02-18T15:14:41;11.00;99.90
53711;DHT22;39605;52.704;6.752;2023-02-18T15:17:18;11.10;99.90
53711;DHT22;39605;52.704;6.752;2023-02-18T15:19:54;11.10;99.90
53711;DHT22;39605;52.704;6.752;2023-02-18T15:22:22;11.00;99.90
53711;DHT22;39605;52.704;6.752;2023-02-18T15:24:50;11.10;99.90
53711;DHT22;39605;52.704;6.752;2023-02-18T15:27:19;11.00;99.90
53711;DHT22;39605;52.704;6.752;2023-02-18T15:29:50;11.00;99.90
53711;DHT22;39605;52.704;6.752;2023-02-18T15:32:34;11.00;99.90
53711;DHT22;39605;52.704;6.752;2023-02-18T15:35:02;10.90;99.90
53711;DHT22;39605;52.704;6.752;2023-02-18T15:37:29;10.90;99.90
53711;DHT22;39605;52.704;6.752;2023-02-18T15:39:55;10.90;99.90
53711;DHT22;39605;52.704;6.752;2023-02-18T15:42:24;10.90;99.90
53711;DHT22;39605;52.704;6.752;2023-02-18T15:47:47;10.90;99.90
53711;DHT22;39605;52.704;6.752;2023-02-18T15:50:22;10.80;99.90
53711;DHT22;39605;52.704;6.752;2023-02-18T15:52:50;10.80;99.90
53711;DHT22;39605;52.704;6.752;2023-02-18T15:55:29;10.90;99.90
53711;DHT22;39605;52.704;6.752;2023-02-18T15:57:56;10.80;99.90
53711;DHT22;39605;52.704;6.752;2023-02-18T16:00:28;10.80;99.90
53711;DHT22;39605;52.704;6.752;2023-02-18T16:03:03;10.80;99.90
53711;DHT22;39605;52.704;6.752;2023-02-18T16:05:37;10.80;99.90
53711;DHT22;39605;52.704;6.752;2023-02-18T16:08:14;10.80;99.90
53711;DHT22;39605;52.704;6.752;2023-02-18T16:10:47;10.80;99.90
53711;DHT22;39605;52.704;6.752;2023-02-18T16:13:16;10.80;99.90
53711;DHT22;39605;52.704;6.752;2023-02-18T16:15:44;10.70;99.90
53711;DHT22;39605;52.704;6.752;2023-02-18T16:18:24;10.70;99.90
53711;DHT22;39605;52.704;6.752;2023-02-18T16:21:00;10.70;99.90
53711;DHT22;39605;52.704;6.752;2023-02-18T16:23:34;10.70;99.90
53711;DHT22;39605;52.704;6.752;2023-02-18T16:26:18;10.70;99.90
53711;DHT22;39605;52.704;6.752;2023-02-18T16:28:45;10.70;99.90
53711;DHT22;39605;52.704;6.752;2023-02-18T16:31:11;10.70;99.90
53711;DHT22;39605;52.704;6.752;2023-02-18T16:33:37;10.60;99.90
53711;DHT22;39605;52.704;6.752;2023-02-18T16:36:03;10.60;99.90
53711;DHT22;39605;52.704;6.752;2023-02-18T16:38:29;10.60;99.90
53711;DHT22;39605;52.704;6.752;2023-02-18T16:40:55;10.60;99.90
53711;DHT22;39605;52.704;6.752;2023-02-18T16:43:24;10.60;99.90
53711;DHT22;39605;52.704;6.752;2023-02-18T16:46:07;10.50;99.90
53711;DHT22;39605;52.704;6.752;2023-02-18T16:48:38;10.50;99.90
53711;DHT22;39605;52.704;6.752;2023-02-18T16:51:15;10.50;99.90
53711;DHT22;39605;52.704;6.752;2023-02-18T16:53:42;10.50;99.90
53711;DHT22;39605;52.704;6.752;2023-02-18T16:56:14;10.50;99.90
53711;DHT22;39605;52.704;6.752;2023-02-18T16:58:40;10.40;99.90
53711;DHT22;39605;52.704;6.752;2023-02-18T17:01:07;10.40;99.90
53711;DHT22;39605;52.704;6.752;2023-02-18T17:03:38;10.40;99.90
53711;DHT22;39605;52.704;6.752;2023-02-18T17:06:04;10.40;99.90
53711;DHT22;39605;52.704;6.752;2023-02-18T17:08:30;10.30;99.90
53711;DHT22;39605;52.704;6.752;2023-02-18T17:10:57;10.30;99.90
53711;DHT22;39605;52.704;6.752;2023-02-18T17:13:27;10.30;99.90
53711;DHT22;39605;52.704;6.752;2023-02-18T17:15:55;10.20;99.90
53711;DHT22;39605;52.704;6.752;2023-02-18T17:18:22;10.20;99.90
53711;DHT22;39605;52.704;6.752;2023-02-18T17:20:50;10.20;99.90
53711;DHT22;39605;52.704;6.752;2023-02-18T17:23:18;10.20;99.90
53711;DHT22;39605;52.704;6.752;2023-02-18T17:25:46;10.10;99.90
53711;DHT22;39605;52.704;6.752;2023-02-18T17:28:14;10.10;99.90
53711;DHT22;39605;52.704;6.752;2023-02-18T17:30:48;10.10;99.90
53711;DHT22;39605;52.704;6.752;2023-02-18T17:33:17;10.10;99.90
53711;DHT22;39605;52.704;6.752;2023-02-18T17:35:43;10.10;99.90
53711;DHT22;39605;52.704;6.752;2023-02-18T17:38:14;10.10;99.90
53711;DHT22;39605;52.704;6.752;2023-02-18T17:40:40;10.10;99.90
53711;DHT22;39605;52.704;6.752;2023-02-18T17:43:08;10.10;99.90
53711;DHT22;39605;52.704;6.752;2023-02-18T17:45:42;10.00;99.90
53711;DHT22;39605;52.704;6.752;2023-02-18T17:48:08;10.10;99.90
53711;DHT22;39605;52.704;6.752;2023-02-18T17:50:34;10.00;99.90
53711;DHT22;39605;52.704;6.752;2023-02-18T17:53:00;10.00;99.90
53711;DHT22;39605;52.704;6.752;2023-02-18T17:55:30;10.00;99.90
53711;DHT22;39605;52.704;6.752;2023-02-18T17:57:57;10.00;99.90
53711;DHT22;39605;52.704;6.752;2023-02-18T18:00:26;10.10;99.90
53711;DHT22;39605;52.704;6.752;2023-02-18T18:02:53;10.00;99.90
53711;DHT22;39605;52.704;6.752;2023-02-18T18:05:25;10.00;99.90
53711;DHT22;39605;52.704;6.752;2023-02-18T18:07:51;10.00;99.90
53711;DHT22;39605;52.704;6.752;2023-02-18T18:10:19;10.00;99.90
53711;DHT22;39605;52.704;6.752;2023-02-18T18:12:46;10.00;99.90
53711;DHT22;39605;52.704;6.752;2023-02-18T18:17:49;10.00;99.90
53711;DHT22;39605;52.704;6.752;2023-02-18T18:20:16;9.90;99.90
53711;DHT22;39605;52.704;6.752;2023-02-18T18:22:42;9.90;99.90
53711;DHT22;39605;52.704;6.752;2023-02-18T18:27:45;9.90;99.90
53711;DHT22;39605;52.704;6.752;2023-02-18T18:30:12;9.90;99.90